KPMD

Palmdale Usaf Plant 42 Airport

Palmdale, California, USA
METAR KPMD 261253Z AUTO 25012KT 10SM CLR 11/06 A2997 RMK AO2 SLP138 T01110056
Observed Flight Rules
May-26 @ 12:53 UTC (48 minutes ago) Visual Flight Rules
Wind Visibility Clouds
250° at 12 knots 10 miles
  • Clear skies
Temperatures Readings
Current 11°C / 52°F
Dewpoint 6°C / 43°F
Humidity 72%
Altimeter 29.97" Hg
Pressure 1013.8 hPa
Elevation 780
METAR KPMD 261253Z AUTO 25012KT 10SM CLR 11/06 A2997 RMK AO2 SLP138 T01110056
Observed Flight Rules
May-26 @ 12:53 UTC
(48 minutes ago)
VFR
Wind Visibility
250° at 12 knots 10 miles
Clouds
  • Clear skies
Temperature Dewpoint
11°C / 52°F 6°C / 43°F
Humidity Altimeter Pressure
72% 29.97" Hg 1013.8 hPa